Time;durP1;ratioP1;P1;durP2;ratioP2;P2;SDS_P1;SDS_P2;PMS_P1;PMS_P2;Temp;Humidity;BMP_temperature;BMP_pressure;BME280_temperature;BME280_humidity;BME280_pressure;Samples;Min_cycle;Max_cycle;Signal;HPM_P1;HPM_P2
2021/08/07 00:02:16;;;;;;;;;;;14.10;99.90;;;;;;5078693;28;20327;-55
2021/08/07 00:05:05;;;;;;;;;;;14.00;99.90;;;;;;5090218;28;19924;-55
2021/08/07 00:07:54;;;;;;;;;;;14.00;99.90;;;;;;5088116;28;19993;-56
2021/08/07 00:10:44;;;;;;;;;;;13.90;99.90;;;;;;5103086;28;19924;-56
2021/08/07 00:13:35;;;;;;;;;;;13.90;99.90;;;;;;5103656;28;19947;-56
2021/08/07 00:16:24;;;;;;;;;;;13.90;99.90;;;;;;5078996;28;19928;-56
2021/08/07 00:19:12;;;;;;;;;;;13.80;99.90;;;;;;5088658;28;19928;-56
2021/08/07 00:22:00;;;;;;;;;;;13.70;99.90;;;;;;5096714;28;19931;-56
2021/08/07 00:24:49;;;;;;;;;;;13.70;99.90;;;;;;5106713;28;19924;-56
2021/08/07 00:27:41;;;;;;;;;;;13.60;99.90;;;;;;5108087;28;19924;-56
2021/08/07 00:30:30;;;;;;;;;;;13.60;99.90;;;;;;5104589;28;19920;-56
2021/08/07 00:33:19;;;;;;;;;;;13.50;99.90;;;;;;5094986;28;19925;-56
2021/08/07 00:36:08;;;;;;;;;;;13.40;99.90;;;;;;5103718;28;19908;-56
2021/08/07 00:38:59;;;;;;;;;;;13.40;99.90;;;;;;5106973;28;19947;-55
2021/08/07 00:41:50;;;;;;;;;;;13.30;99.90;;;;;;5135850;27;19924;-57
2021/08/07 00:44:40;;;;;;;;;;;13.30;99.90;;;;;;5098743;28;19924;-56
2021/08/07 00:47:30;;;;;;;;;;;13.30;99.90;;;;;;5093904;28;19977;-57
2021/08/07 00:50:23;;;;;;;;;;;13.30;99.90;;;;;;5124452;28;20211;-59
2021/08/07 00:53:13;;;;;;;;;;;13.20;99.90;;;;;;5121599;28;19935;-56
2021/08/07 00:56:04;;;;;;;;;;;13.30;99.90;;;;;;5104224;28;19924;-56
2021/08/07 00:59:00;;;;;;;;;;;13.30;99.90;;;;;;5085807;28;19924;-57
2021/08/07 01:05:17;;;;;;;;;;;13.30;99.90;;;;;;5109509;28;19924;-57
2021/08/07 01:08:14;;;;;;;;;;;13.30;99.90;;;;;;5121569;28;19939;-56
2021/08/07 01:11:06;;;;;;;;;;;13.20;99.90;;;;;;5129015;27;19942;-56
2021/08/07 01:13:59;;;;;;;;;;;13.20;99.90;;;;;;5102725;28;19980;-58
2021/08/07 01:16:48;;;;;;;;;;;13.20;99.90;;;;;;5125502;28;19962;-58
2021/08/07 01:19:45;;;;;;;;;;;13.30;99.90;;;;;;5102582;28;19939;-56
2021/08/07 01:22:39;;;;;;;;;;;13.20;99.90;;;;;;5085238;28;19943;-56
2021/08/07 01:25:31;;;;;;;;;;;13.20;99.90;;;;;;5103180;28;19959;-56
2021/08/07 01:28:21;;;;;;;;;;;13.10;99.90;;;;;;5099682;28;19977;-57
2021/08/07 01:31:12;;;;;;;;;;;13.10;99.90;;;;;;5099570;27;20062;-55
2021/08/07 01:34:01;;;;;;;;;;;13.10;99.90;;;;;;5079796;28;19924;-56
2021/08/07 01:37:01;;;;;;;;;;;13.10;99.90;;;;;;5102377;28;19962;-58
2021/08/07 01:40:13;;;;;;;;;;;13.10;99.90;;;;;;5101053;28;20348;-56
2021/08/07 01:43:14;;;;;;;;;;;13.10;99.90;;;;;;5087785;28;19986;-57
2021/08/07 01:46:07;;;;;;;;;;;13.10;99.90;;;;;;5075600;28;20387;-56
2021/08/07 01:49:08;;;;;;;;;;;13.10;99.90;;;;;;5106220;28;20421;-56
2021/08/07 01:52:19;;;;;;;;;;;13.10;99.90;;;;;;5077399;28;19931;-56
2021/08/07 01:55:24;;;;;;;;;;;13.10;99.90;;;;;;5078832;28;19931;-56
2021/08/07 01:58:21;;;;;;;;;;;13.10;99.90;;;;;;5088733;28;20387;-57
2021/08/07 02:01:14;;;;;;;;;;;13.00;99.90;;;;;;5074491;28;20365;-55
2021/08/07 02:04:05;;;;;;;;;;;13.00;99.90;;;;;;5102343;28;20005;-56
2021/08/07 02:07:02;;;;;;;;;;;12.90;99.90;;;;;;5074780;28;20404;-56
2021/08/07 02:09:51;;;;;;;;;;;12.90;99.90;;;;;;5082999;28;19927;-56
2021/08/07 02:12:41;;;;;;;;;;;12.90;99.90;;;;;;5078941;28;19924;-58
2021/08/07 02:15:35;;;;;;;;;;;12.90;99.90;;;;;;5098072;28;19924;-56
2021/08/07 02:18:32;;;;;;;;;;;12.90;99.90;;;;;;5106159;27;19972;-59
2021/08/07 02:21:23;;;;;;;;;;;12.80;99.90;;;;;;5093480;28;20279;-59
2021/08/07 02:24:11;;;;;;;;;;;12.80;99.90;;;;;;5084779;28;20387;-56
2021/08/07 02:27:08;;;;;;;;;;;12.70;99.90;;;;;;5072129;28;20010;-57
2021/08/07 02:29:57;;;;;;;;;;;12.70;99.90;;;;;;5076196;28;19925;-56
2021/08/07 02:32:48;;;;;;;;;;;12.70;99.90;;;;;;5074937;28;19985;-56
2021/08/07 02:35:39;;;;;;;;;;;12.60;99.90;;;;;;5112260;27;19936;-56
2021/08/07 02:38:30;;;;;;;;;;;12.60;99.90;;;;;;5078176;28;19978;-56
2021/08/07 02:41:20;;;;;;;;;;;12.60;99.90;;;;;;5090554;28;19931;-56
2021/08/07 02:44:11;;;;;;;;;;;12.70;99.90;;;;;;5101801;28;20354;-56
2021/08/07 02:47:00;;;;;;;;;;;12.70;99.90;;;;;;5079932;28;19924;-56
2021/08/07 02:49:49;;;;;;;;;;;12.70;99.90;;;;;;5102021;27;20409;-56
2021/08/07 02:52:39;;;;;;;;;;;12.70;99.90;;;;;;5074330;28;20018;-56
2021/08/07 02:55:35;;;;;;;;;;;12.80;99.90;;;;;;5074712;28;19931;-56
2021/08/07 02:58:34;;;;;;;;;;;12.70;99.90;;;;;;5107100;27;20017;-56
2021/08/07 03:01:24;;;;;;;;;;;12.70;99.90;;;;;;5099049;28;20386;-55
2021/08/07 03:04:16;;;;;;;;;;;12.60;99.90;;;;;;5105380;28;19924;-58
2021/08/07 03:07:05;;;;;;;;;;;12.60;99.90;;;;;;5098077;28;19971;-56
2021/08/07 03:09:56;;;;;;;;;;;12.50;99.90;;;;;;5103782;28;19928;-55
2021/08/07 03:12:46;;;;;;;;;;;12.50;99.90;;;;;;5081514;28;20333;-56
2021/08/07 03:15:36;;;;;;;;;;;12.50;99.90;;;;;;5079197;28;20525;-56
2021/08/07 03:18:25;;;;;;;;;;;12.40;99.90;;;;;;5093733;27;20372;-56
2021/08/07 03:21:14;;;;;;;;;;;12.50;99.90;;;;;;5075367;28;20014;-56
2021/08/07 03:24:11;;;;;;;;;;;12.50;99.90;;;;;;5074403;28;19963;-56
2021/08/07 03:27:07;;;;;;;;;;;12.40;99.90;;;;;;5074961;28;20011;-55
2021/08/07 03:30:02;;;;;;;;;;;12.40;99.90;;;;;;5095896;28;19932;-56
2021/08/07 03:32:51;;;;;;;;;;;12.40;99.90;;;;;;5102221;27;19975;-57
2021/08/07 03:35:43;;;;;;;;;;;12.50;99.90;;;;;;5097822;28;19930;-56
2021/08/07 03:38:33;;;;;;;;;;;12.50;99.90;;;;;;5079302;28;19974;-56
2021/08/07 03:41:22;;;;;;;;;;;12.50;99.90;;;;;;5085135;28;19924;-56
2021/08/07 03:44:15;;;;;;;;;;;12.50;99.90;;;;;;5104985;27;20015;-56
2021/08/07 03:47:04;;;;;;;;;;;12.40;99.90;;;;;;5084673;28;20384;-56
2021/08/07 03:49:53;;;;;;;;;;;12.50;99.90;;;;;;5107809;27;20387;-55
2021/08/07 03:52:44;;;;;;;;;;;12.50;99.90;;;;;;5104224;28;20011;-56
2021/08/07 03:55:34;;;;;;;;;;;12.50;99.90;;;;;;5068327;28;20011;-56
2021/08/07 03:58:25;;;;;;;;;;;12.50;99.90;;;;;;5072550;28;19948;-56
2021/08/07 04:01:22;;;;;;;;;;;12.40;99.90;;;;;;5101044;27;20022;-57
2021/08/07 04:04:12;;;;;;;;;;;12.40;99.90;;;;;;5104429;27;19932;-56
2021/08/07 04:07:05;;;;;;;;;;;12.40;99.90;;;;;;5076109;28;19928;-56
2021/08/07 04:10:11;;;;;;;;;;;12.40;99.90;;;;;;5070159;28;19928;-56
2021/08/07 04:13:02;;;;;;;;;;;12.40;99.90;;;;;;5081875;28;19924;-56
2021/08/07 04:15:51;;;;;;;;;;;12.50;99.90;;;;;;5064570;28;19925;-56
2021/08/07 04:18:42;;;;;;;;;;;12.50;99.90;;;;;;5107281;28;19946;-58
2021/08/07 04:21:31;;;;;;;;;;;12.60;99.90;;;;;;5110280;27;20249;-56
2021/08/07 04:24:19;;;;;;;;;;;12.60;99.90;;;;;;5083508;28;19932;-56
2021/08/07 04:27:13;;;;;;;;;;;12.60;99.90;;;;;;5087812;28;19931;-56
2021/08/07 04:30:07;;;;;;;;;;;12.70;99.90;;;;;;5093318;28;19928;-55
2021/08/07 04:32:58;;;;;;;;;;;12.70;99.90;;;;;;5071085;28;20288;-57
2021/08/07 04:35:50;;;;;;;;;;;12.70;99.90;;;;;;5099125;28;20040;-59
2021/08/07 04:38:43;;;;;;;;;;;12.80;99.90;;;;;;5110362;28;19924;-56
2021/08/07 04:41:32;;;;;;;;;;;12.80;99.90;;;;;;5101270;28;20019;-56
2021/08/07 04:44:22;;;;;;;;;;;12.90;99.90;;;;;;5075850;28;20019;-56
2021/08/07 04:47:11;;;;;;;;;;;12.90;99.90;;;;;;5094234;28;19928;-59
2021/08/07 04:50:00;;;;;;;;;;;12.90;99.90;;;;;;5075998;28;20057;-56
2021/08/07 04:52:55;;;;;;;;;;;13.00;99.90;;;;;;5082330;28;19923;-56
2021/08/07 04:55:43;;;;;;;;;;;13.00;99.90;;;;;;5082994;28;19969;-56
2021/08/07 04:58:33;;;;;;;;;;;13.00;99.90;;;;;;5071953;28;20396;-56
2021/08/07 05:01:21;;;;;;;;;;;13.00;99.90;;;;;;5070715;28;19928;-56
2021/08/07 05:04:12;;;;;;;;;;;13.10;99.90;;;;;;5077749;28;19924;-56
2021/08/07 05:07:04;;;;;;;;;;;13.20;99.90;;;;;;5071861;28;19924;-56
2021/08/07 05:09:54;;;;;;;;;;;13.30;99.90;;;;;;5096015;28;20007;-56
2021/08/07 05:12:43;;;;;;;;;;;13.40;99.90;;;;;;5099291;28;19924;-56
2021/08/07 05:15:32;;;;;;;;;;;13.60;99.90;;;;;;5076362;28;19968;-55
2021/08/07 05:18:22;;;;;;;;;;;13.80;99.90;;;;;;5099575;28;20365;-56
2021/08/07 05:21:11;;;;;;;;;;;14.20;99.90;;;;;;5087646;28;20011;-58
2021/08/07 05:24:03;;;;;;;;;;;14.40;99.90;;;;;;5107234;27;19997;-59
2021/08/07 05:26:54;;;;;;;;;;;14.60;99.90;;;;;;5078040;28;19944;-56
2021/08/07 05:29:43;;;;;;;;;;;14.70;99.90;;;;;;5078926;28;19931;-57
2021/08/07 05:32:32;;;;;;;;;;;14.90;99.90;;;;;;5107565;27;19931;-57
2021/08/07 05:35:25;;;;;;;;;;;15.10;99.90;;;;;;5100897;28;19971;-56
2021/08/07 05:38:16;;;;;;;;;;;15.10;99.90;;;;;;5098882;28;20062;-58
2021/08/07 05:41:05;;;;;;;;;;;15.00;99.90;;;;;;5103666;28;19925;-56
2021/08/07 05:43:59;;;;;;;;;;;14.80;99.90;;;;;;5095744;27;19935;-56
2021/08/07 05:46:51;;;;;;;;;;;14.80;99.90;;;;;;5076320;28;19932;-56
2021/08/07 05:49:40;;;;;;;;;;;14.70;99.90;;;;;;5102027;28;19924;-56
2021/08/07 05:52:33;;;;;;;;;;;14.70;99.90;;;;;;5092290;28;19928;-56
2021/08/07 05:55:23;;;;;;;;;;;14.80;99.90;;;;;;5106842;28;19924;-56
2021/08/07 05:58:12;;;;;;;;;;;14.90;99.90;;;;;;5104867;28;20347;-57
2021/08/07 06:01:05;;;;;;;;;;;15.00;99.90;;;;;;5069851;28;20417;-57
2021/08/07 06:03:54;;;;;;;;;;;15.20;99.90;;;;;;5077915;28;19932;-57
2021/08/07 06:06:45;;;;;;;;;;;15.40;99.90;;;;;;5078108;28;19947;-57
2021/08/07 06:09:34;;;;;;;;;;;15.60;99.90;;;;;;5077840;28;19974;-57
2021/08/07 06:12:23;;;;;;;;;;;16.00;99.90;;;;;;5078562;28;20288;-56
2021/08/07 06:15:37;;;;;;;;;;;16.40;99.90;;;;;;5074778;28;19993;-56
2021/08/07 06:18:28;;;;;;;;;;;16.60;99.90;;;;;;5088211;28;19927;-57
2021/08/07 06:21:17;;;;;;;;;;;17.00;99.90;;;;;;5098006;27;19928;-57
2021/08/07 06:24:07;;;;;;;;;;;17.30;99.90;;;;;;5079992;28;19934;-57
2021/08/07 06:26:56;;;;;;;;;;;17.40;99.90;;;;;;5088828;28;19973;-56
2021/08/07 06:29:44;;;;;;;;;;;17.60;99.90;;;;;;5098205;28;19967;-57
2021/08/07 06:32:33;;;;;;;;;;;18.30;99.90;;;;;;5076354;28;19982;-59
2021/08/07 06:35:47;;;;;;;;;;;19.20;99.90;;;;;;5092726;27;19924;-57
2021/08/07 06:38:38;;;;;;;;;;;20.40;99.90;;;;;;5073302;28;19931;-57
2021/08/07 06:41:27;;;;;;;;;;;21.10;99.90;;;;;;5081696;28;19929;-60
2021/08/07 06:44:25;;;;;;;;;;;21.60;99.90;;;;;;5088300;28;19936;-58
2021/08/07 06:47:18;;;;;;;;;;;21.20;99.90;;;;;;5099674;27;20015;-57
2021/08/07 06:50:08;;;;;;;;;;;22.20;99.90;;;;;;5075657;28;19936;-57
2021/08/07 06:52:57;;;;;;;;;;;23.10;99.90;;;;;;5073400;28;19935;-57
2021/08/07 06:55:47;;;;;;;;;;;23.20;99.90;;;;;;5104081;27;19931;-57
2021/08/07 06:58:36;;;;;;;;;;;23.50;99.90;;;;;;5105868;27;20263;-57
2021/08/07 07:01:26;;;;;;;;;;;24.40;98.90;;;;;;5094988;28;20299;-57
2021/08/07 07:04:15;;;;;;;;;;;24.50;98.40;;;;;;5099816;27;20285;-60
2021/08/07 07:07:04;;;;;;;;;;;25.40;97.80;;;;;;5079170;28;19949;-57
2021/08/07 07:09:53;;;;;;;;;;;25.50;96.90;;;;;;5063847;28;20292;-57
2021/08/07 07:12:43;;;;;;;;;;;26.30;96.10;;;;;;5083983;28;19924;-57
2021/08/07 07:15:35;;;;;;;;;;;27.30;94.50;;;;;;5098487;27;20064;-57
2021/08/07 07:18:23;;;;;;;;;;;26.60;94.00;;;;;;5069336;28;20029;-57
2021/08/07 07:21:12;;;;;;;;;;;27.60;92.70;;;;;;5070324;28;19925;-58
2021/08/07 07:24:01;;;;;;;;;;;27.60;92.00;;;;;;5078142;28;19925;-56
2021/08/07 07:26:50;;;;;;;;;;;27.30;92.10;;;;;;5099435;28;20300;-57
2021/08/07 07:29:40;;;;;;;;;;;26.40;93.00;;;;;;5074178;28;20021;-57
2021/08/07 07:32:30;;;;;;;;;;;27.40;92.30;;;;;;5070221;28;20391;-56
2021/08/07 07:35:19;;;;;;;;;;;28.10;90.70;;;;;;5098969;27;19925;-56
2021/08/07 07:38:33;;;;;;;;;;;26.20;92.30;;;;;;5086174;28;19928;-56
2021/08/07 07:41:23;;;;;;;;;;;25.40;94.40;;;;;;5079784;28;19928;-57
2021/08/07 07:44:11;;;;;;;;;;;24.90;95.50;;;;;;5076040;28;19993;-56
2021/08/07 07:47:02;;;;;;;;;;;25.30;96.20;;;;;;5083900;27;19924;-56
2021/08/07 07:49:51;;;;;;;;;;;27.10;93.40;;;;;;5100567;28;19999;-57
2021/08/07 07:52:42;;;;;;;;;;;26.40;92.60;;;;;;5094501;28;19925;-58
2021/08/07 07:55:31;;;;;;;;;;;26.50;92.80;;;;;;5067680;28;20296;-56
2021/08/07 07:58:20;;;;;;;;;;;28.30;91.30;;;;;;5103812;27;19928;-56
2021/08/07 08:01:09;;;;;;;;;;;28.70;89.00;;;;;;5072218;28;20007;-56
2021/08/07 08:03:59;;;;;;;;;;;30.60;83.90;;;;;;5073658;28;19990;-56
2021/08/07 08:06:48;;;;;;;;;;;32.10;77.10;;;;;;5098797;28;19966;-56
2021/08/07 08:09:37;;;;;;;;;;;34.20;67.50;;;;;;5073965;28;20033;-56
2021/08/07 08:15:40;;;;;;;;;;;34.40;66.00;;;;;;5064041;28;19932;-56
2021/08/07 08:18:31;;;;;;;;;;;32.00;68.10;;;;;;5074802;28;19931;-56
2021/08/07 08:21:21;;;;;;;;;;;31.20;70.00;;;;;;5065316;28;19928;-57
2021/08/07 08:24:09;;;;;;;;;;;29.70;70.80;;;;;;5074899;28;20364;-56
2021/08/07 08:26:58;;;;;;;;;;;30.00;73.20;;;;;;5067522;28;19928;-57
2021/08/07 08:29:47;;;;;;;;;;;30.20;72.90;;;;;;5101544;28;19924;-56
2021/08/07 08:32:37;;;;;;;;;;;30.30;75.80;;;;;;5103953;28;20017;-56
2021/08/07 08:35:27;;;;;;;;;;;29.60;75.70;;;;;;5072637;28;20015;-55
2021/08/07 08:38:17;;;;;;;;;;;29.60;74.90;;;;;;5107465;28;19924;-57
2021/08/07 08:41:07;;;;;;;;;;;28.30;76.10;;;;;;5087828;28;20015;-56
2021/08/07 08:43:59;;;;;;;;;;;30.20;75.20;;;;;;5101633;28;19932;-58
2021/08/07 08:46:52;;;;;;;;;;;28.00;76.00;;;;;;5094326;28;19959;-59
2021/08/07 08:49:44;;;;;;;;;;;28.20;77.60;;;;;;5069295;28;20905;-57
2021/08/07 08:52:36;;;;;;;;;;;29.20;75.20;;;;;;5098343;28;19936;-57
2021/08/07 08:55:26;;;;;;;;;;;29.40;72.90;;;;;;5067329;28;19950;-55
2021/08/07 08:58:15;;;;;;;;;;;31.20;69.30;;;;;;5069537;28;19931;-56
2021/08/07 09:01:04;;;;;;;;;;;32.10;64.50;;;;;;5072004;28;19924;-56
2021/08/07 09:03:54;;;;;;;;;;;29.60;70.40;;;;;;5088854;28;19924;-56
2021/08/07 09:06:43;;;;;;;;;;;27.90;75.40;;;;;;5110380;27;19924;-56
2021/08/07 09:09:36;;;;;;;;;;;25.70;81.80;;;;;;5085178;28;20295;-59
2021/08/07 09:12:43;;;;;;;;;;;25.10;87.80;;;;;;5082782;28;19928;-56
2021/08/07 09:15:34;;;;;;;;;;;25.50;87.80;;;;;;5096425;27;19932;-56
2021/08/07 09:18:32;;;;;;;;;;;26.90;83.30;;;;;;5085922;28;19924;-56
2021/08/07 09:21:25;;;;;;;;;;;26.20;84.80;;;;;;5104679;28;19974;-56
2021/08/07 09:24:17;;;;;;;;;;;27.80;84.20;;;;;;5116115;27;19931;-56
2021/08/07 09:27:06;;;;;;;;;;;28.60;77.80;;;;;;5106208;28;19924;-56
2021/08/07 09:29:56;;;;;;;;;;;27.90;82.10;;;;;;5089335;28;19927;-56
2021/08/07 09:32:45;;;;;;;;;;;27.70;82.10;;;;;;5099972;28;20007;-56
2021/08/07 09:35:37;;;;;;;;;;;26.60;85.40;;;;;;5105621;28;19930;-56
2021/08/07 09:38:30;;;;;;;;;;;25.00;89.40;;;;;;5095668;28;20364;-56
2021/08/07 09:41:30;;;;;;;;;;;25.20;90.10;;;;;;5101615;28;20011;-57
2021/08/07 09:44:20;;;;;;;;;;;24.90;91.10;;;;;;5083556;28;19934;-56
2021/08/07 09:47:12;;;;;;;;;;;24.60;92.50;;;;;;5097240;28;20399;-56
2021/08/07 09:50:04;;;;;;;;;;;25.30;91.30;;;;;;5077012;28;19931;-56
2021/08/07 09:52:53;;;;;;;;;;;25.90;89.00;;;;;;5077876;28;20346;-56
2021/08/07 09:55:58;;;;;;;;;;;26.40;87.40;;;;;;5107013;28;19924;-56
2021/08/07 09:58:47;;;;;;;;;;;26.20;90.10;;;;;;5103646;28;19924;-56
2021/08/07 10:02:03;;;;;;;;;;;25.10;90.50;;;;;;5092802;28;19924;-56
2021/08/07 10:04:56;;;;;;;;;;;25.60;90.50;;;;;;5082971;28;20338;-56
2021/08/07 10:08:01;;;;;;;;;;;25.70;90.20;;;;;;5090114;28;19924;-56
2021/08/07 10:11:10;;;;;;;;;;;25.20;90.60;;;;;;5106004;28;20001;-59
2021/08/07 10:14:02;;;;;;;;;;;25.20;90.30;;;;;;5085223;28;19959;-56
2021/08/07 10:17:04;;;;;;;;;;;25.20;90.40;;;;;;5064247;28;19966;-56
2021/08/07 10:19:53;;;;;;;;;;;25.30;91.10;;;;;;5068648;28;19938;-57
2021/08/07 10:22:46;;;;;;;;;;;25.70;90.40;;;;;;5098330;28;19925;-55
2021/08/07 10:25:35;;;;;;;;;;;26.60;88.40;;;;;;5088085;28;19946;-55
2021/08/07 10:28:28;;;;;;;;;;;26.20;87.30;;;;;;5097418;28;20364;-55
2021/08/07 10:31:22;;;;;;;;;;;26.60;87.40;;;;;;5085216;28;19932;-56
2021/08/07 10:34:12;;;;;;;;;;;25.90;90.70;;;;;;5085069;28;20315;-58
2021/08/07 10:37:01;;;;;;;;;;;25.30;91.40;;;;;;5087033;28;19969;-55
2021/08/07 10:39:53;;;;;;;;;;;25.90;90.10;;;;;;5104242;28;20196;-57
2021/08/07 10:42:44;;;;;;;;;;;25.40;90.00;;;;;;5087661;28;19930;-55
2021/08/07 10:45:34;;;;;;;;;;;25.20;90.30;;;;;;5082167;28;19928;-56
2021/08/07 10:48:37;;;;;;;;;;;25.10;90.80;;;;;;5110602;28;20068;-57
2021/08/07 10:51:31;;;;;;;;;;;25.20;90.00;;;;;;5097916;28;19942;-57
2021/08/07 10:54:33;;;;;;;;;;;25.20;90.10;;;;;;5096869;28;19989;-56
2021/08/07 10:57:35;;;;;;;;;;;24.60;91.40;;;;;;5090935;28;19941;-57
2021/08/07 11:00:28;;;;;;;;;;;24.50;92.00;;;;;;5089974;28;19924;-57
2021/08/07 11:03:18;;;;;;;;;;;24.40;92.80;;;;;;5099900;28;19974;-57
2021/08/07 11:06:07;;;;;;;;;;;23.80;93.70;;;;;;5095610;28;19925;-57
2021/08/07 11:09:15;;;;;;;;;;;23.80;94.60;;;;;;5089520;28;19935;-56
2021/08/07 11:12:18;;;;;;;;;;;23.60;95.10;;;;;;5103131;28;19934;-58
2021/08/07 11:15:14;;;;;;;;;;;23.40;96.00;;;;;;5092164;28;19988;-57
2021/08/07 11:18:24;;;;;;;;;;;23.10;96.30;;;;;;5088030;28;19943;-58
2021/08/07 11:21:27;;;;;;;;;;;22.80;97.20;;;;;;5091879;28;19924;-56
2021/08/07 11:24:30;;;;;;;;;;;23.00;97.80;;;;;;5099526;28;19924;-56
2021/08/07 11:27:18;;;;;;;;;;;23.40;98.10;;;;;;5104551;28;19946;-58
2021/08/07 11:30:18;;;;;;;;;;;23.90;97.50;;;;;;5083533;28;19924;-57
2021/08/07 11:33:24;;;;;;;;;;;23.90;97.10;;;;;;5104206;28;19946;-58
2021/08/07 11:40:00;;;;;;;;;;;24.40;96.40;;;;;;5087197;28;19925;-57
2021/08/07 11:42:51;;;;;;;;;;;24.60;96.10;;;;;;5082248;28;20288;-57
2021/08/07 11:45:42;;;;;;;;;;;24.30;98.60;;;;;;5067950;28;19925;-56
2021/08/07 11:48:32;;;;;;;;;;;23.70;98.70;;;;;;5070825;28;20258;-57
2021/08/07 11:51:22;;;;;;;;;;;23.00;98.70;;;;;;5068339;28;19947;-56
2021/08/07 11:54:14;;;;;;;;;;;23.10;98.80;;;;;;5075118;28;19933;-57
2021/08/07 11:57:03;;;;;;;;;;;22.90;99.20;;;;;;5078021;28;19924;-59
2021/08/07 11:59:51;;;;;;;;;;;22.60;98.60;;;;;;5075103;28;19998;-57
2021/08/07 12:02:41;;;;;;;;;;;22.60;99.90;;;;;;5071517;28;19924;-57
2021/08/07 12:05:31;;;;;;;;;;;22.30;99.90;;;;;;5072599;28;19959;-56
2021/08/07 12:08:21;;;;;;;;;;;22.00;99.90;;;;;;5073427;28;20380;-57
2021/08/07 12:11:11;;;;;;;;;;;21.70;99.90;;;;;;5054834;28;19959;-56
2021/08/07 12:14:00;;;;;;;;;;;21.60;99.90;;;;;;5065065;28;19928;-58
2021/08/07 12:16:48;;;;;;;;;;;21.50;99.90;;;;;;5064456;28;19931;-56
2021/08/07 12:19:38;;;;;;;;;;;21.30;99.90;;;;;;5061396;28;19928;-56
2021/08/07 12:22:27;;;;;;;;;;;21.10;99.90;;;;;;5066632;28;20383;-56
2021/08/07 12:25:19;;;;;;;;;;;20.80;99.90;;;;;;5068760;28;19978;-56
2021/08/07 12:28:11;;;;;;;;;;;20.40;99.90;;;;;;5063851;28;20238;-56
2021/08/07 12:34:18;;;;;;;;;;;19.80;99.90;;;;;;5064795;28;19931;-56
2021/08/07 12:37:09;;;;;;;;;;;19.50;99.90;;;;;;5065173;28;20372;-56
2021/08/07 12:39:57;;;;;;;;;;;19.20;99.90;;;;;;5063694;28;19925;-56
2021/08/07 12:42:50;;;;;;;;;;;19.10;99.90;;;;;;5064477;28;19924;-56
2021/08/07 12:45:38;;;;;;;;;;;19.00;99.90;;;;;;5047779;28;19925;-56
2021/08/07 12:48:28;;;;;;;;;;;19.00;99.90;;;;;;5067497;28;20034;-56
2021/08/07 12:51:24;;;;;;;;;;;19.00;99.90;;;;;;5069772;28;19928;-56
2021/08/07 12:54:18;;;;;;;;;;;19.10;99.90;;;;;;5068146;28;20019;-59
2021/08/07 12:57:21;;;;;;;;;;;19.10;99.90;;;;;;5054741;28;19931;-56
2021/08/07 13:00:11;;;;;;;;;;;19.20;99.90;;;;;;5061131;28;19943;-56
2021/08/07 13:03:04;;;;;;;;;;;19.30;99.90;;;;;;5081193;28;19959;-56
2021/08/07 13:06:03;;;;;;;;;;;19.20;99.90;;;;;;5085119;28;19929;-56
2021/08/07 13:08:51;;;;;;;;;;;19.20;99.90;;;;;;5080556;28;19924;-57
2021/08/07 13:12:00;;;;;;;;;;;19.30;99.90;;;;;;5089692;28;19931;-56
2021/08/07 13:15:04;;;;;;;;;;;19.30;99.90;;;;;;5083425;28;20010;-56
2021/08/07 13:17:58;;;;;;;;;;;19.30;99.90;;;;;;5078295;28;19929;-56
2021/08/07 13:20:49;;;;;;;;;;;19.30;99.90;;;;;;5083769;28;19924;-56
2021/08/07 13:23:39;;;;;;;;;;;19.10;99.90;;;;;;5083110;28;20678;-56
2021/08/07 13:26:28;;;;;;;;;;;19.00;99.90;;;;;;5086030;28;19928;-57
2021/08/07 13:29:42;;;;;;;;;;;19.00;99.90;;;;;;5087255;28;19931;-57
2021/08/07 13:32:32;;;;;;;;;;;19.00;99.90;;;;;;5078757;28;20015;-56
2021/08/07 13:35:21;;;;;;;;;;;19.00;99.90;;;;;;5083337;28;20057;-57
2021/08/07 13:38:10;;;;;;;;;;;19.00;99.90;;;;;;5078685;28;19931;-59
2021/08/07 13:41:08;;;;;;;;;;;19.00;99.90;;;;;;5087221;28;19973;-57
2021/08/07 13:43:57;;;;;;;;;;;18.90;99.90;;;;;;5087692;28;19924;-56
2021/08/07 13:50:00;;;;;;;;;;;18.90;99.90;;;;;;5088655;28;19924;-56
2021/08/07 13:52:49;;;;;;;;;;;19.00;99.90;;;;;;5079985;28;19936;-56
2021/08/07 13:55:38;;;;;;;;;;;18.90;99.90;;;;;;5080018;28;19993;-56
2021/08/07 13:58:27;;;;;;;;;;;18.70;99.90;;;;;;5083165;28;19925;-57
2021/08/07 14:01:15;;;;;;;;;;;18.60;99.90;;;;;;5080664;28;20406;-58
2021/08/07 14:04:04;;;;;;;;;;;18.60;99.90;;;;;;5088491;28;20465;-56
2021/08/07 14:06:54;;;;;;;;;;;18.60;99.90;;;;;;5085589;28;20051;-57
2021/08/07 14:09:43;;;;;;;;;;;18.50;99.90;;;;;;5082753;28;19943;-56
2021/08/07 14:12:36;;;;;;;;;;;18.50;99.90;;;;;;5084685;28;19984;-58
2021/08/07 14:15:25;;;;;;;;;;;18.40;99.90;;;;;;5078730;28;19997;-56
2021/08/07 14:18:13;;;;;;;;;;;18.40;99.90;;;;;;5091013;28;19924;-57
2021/08/07 14:21:02;;;;;;;;;;;18.50;99.90;;;;;;5089159;28;19931;-56
2021/08/07 14:23:53;;;;;;;;;;;18.40;99.90;;;;;;5092128;28;19958;-56
2021/08/07 14:26:41;;;;;;;;;;;18.40;99.90;;;;;;5089224;28;19942;-56
2021/08/07 14:29:30;;;;;;;;;;;18.30;99.90;;;;;;5083306;28;19935;-57
2021/08/07 14:32:19;;;;;;;;;;;18.40;99.90;;;;;;5075261;28;19961;-59
2021/08/07 14:35:10;;;;;;;;;;;18.40;99.90;;;;;;5084177;28;19938;-60
2021/08/07 14:37:59;;;;;;;;;;;18.40;99.90;;;;;;5085922;28;19932;-56
2021/08/07 14:40:49;;;;;;;;;;;18.50;99.90;;;;;;5081925;28;20825;-57
2021/08/07 14:43:39;;;;;;;;;;;18.50;99.90;;;;;;5082401;28;19931;-57
2021/08/07 14:46:27;;;;;;;;;;;18.50;99.90;;;;;;5079416;28;19924;-56
2021/08/07 14:49:16;;;;;;;;;;;18.50;99.90;;;;;;5090472;28;19924;-56
2021/08/07 14:52:05;;;;;;;;;;;18.40;99.90;;;;;;5078284;28;19928;-57
2021/08/07 14:54:54;;;;;;;;;;;18.40;99.90;;;;;;5083256;28;19994;-56
2021/08/07 14:57:44;;;;;;;;;;;18.40;99.90;;;;;;5080489;28;19931;-58
2021/08/07 15:00:32;;;;;;;;;;;18.40;99.90;;;;;;5077671;28;20019;-57
2021/08/07 15:03:21;;;;;;;;;;;18.30;99.90;;;;;;5080384;28;19947;-56
2021/08/07 15:06:10;;;;;;;;;;;18.30;99.90;;;;;;5078665;28;19924;-58
2021/08/07 15:09:00;;;;;;;;;;;18.30;99.90;;;;;;5084703;28;21459;-58
2021/08/07 15:11:49;;;;;;;;;;;18.20;99.90;;;;;;5078424;28;19939;-57
2021/08/07 15:14:39;;;;;;;;;;;18.20;99.90;;;;;;5085912;28;19946;-55
2021/08/07 15:17:28;;;;;;;;;;;18.20;99.90;;;;;;5082008;28;19982;-55
2021/08/07 15:20:17;;;;;;;;;;;18.10;99.90;;;;;;5080984;28;19924;-56
2021/08/07 15:23:05;;;;;;;;;;;18.10;99.90;;;;;;5075240;28;20429;-56
2021/08/07 15:25:53;;;;;;;;;;;18.00;99.90;;;;;;5086268;28;19955;-56
2021/08/07 15:28:42;;;;;;;;;;;18.00;99.90;;;;;;5088987;28;19939;-56
2021/08/07 15:31:33;;;;;;;;;;;17.80;99.90;;;;;;5073691;28;19950;-57
2021/08/07 15:34:22;;;;;;;;;;;17.80;99.90;;;;;;5090531;28;20374;-58
2021/08/07 15:37:11;;;;;;;;;;;17.80;99.90;;;;;;5085554;28;19946;-56
2021/08/07 15:39:59;;;;;;;;;;;17.80;99.90;;;;;;5082574;28;20315;-56
2021/08/07 15:42:48;;;;;;;;;;;17.80;99.90;;;;;;5081095;28;20495;-56
2021/08/07 15:45:37;;;;;;;;;;;17.80;99.90;;;;;;5070720;28;19962;-56
2021/08/07 15:48:27;;;;;;;;;;;17.70;99.90;;;;;;5086890;28;19943;-58
2021/08/07 15:51:16;;;;;;;;;;;17.60;99.90;;;;;;5084648;28;19943;-56
2021/08/07 15:54:06;;;;;;;;;;;17.60;99.90;;;;;;5090130;28;20071;-57
2021/08/07 15:56:58;;;;;;;;;;;17.50;99.90;;;;;;5079061;28;20088;-56
2021/08/07 15:59:46;;;;;;;;;;;17.40;99.90;;;;;;5084019;28;19928;-56
2021/08/07 16:02:36;;;;;;;;;;;17.20;99.90;;;;;;5079525;28;19965;-56
2021/08/07 16:05:26;;;;;;;;;;;17.20;99.90;;;;;;5084373;28;20542;-56
2021/08/07 16:08:15;;;;;;;;;;;17.20;99.90;;;;;;5079256;28;19924;-60
2021/08/07 16:11:04;;;;;;;;;;;17.10;99.90;;;;;;5084986;28;19954;-59
2021/08/07 16:13:52;;;;;;;;;;;17.00;99.90;;;;;;5087467;28;20031;-56
2021/08/07 16:16:41;;;;;;;;;;;16.80;99.90;;;;;;5079688;28;19924;-56
2021/08/07 16:19:30;;;;;;;;;;;16.70;99.90;;;;;;5089517;28;19924;-57
2021/08/07 16:22:20;;;;;;;;;;;16.70;99.90;;;;;;5079799;28;20368;-57
2021/08/07 16:25:09;;;;;;;;;;;16.80;99.90;;;;;;5083815;28;19924;-57
2021/08/07 16:27:57;;;;;;;;;;;16.90;99.90;;;;;;5081874;28;19932;-57
2021/08/07 16:30:46;;;;;;;;;;;16.80;99.90;;;;;;5073802;28;19928;-57
2021/08/07 16:33:35;;;;;;;;;;;16.80;99.90;;;;;;5088776;28;19924;-56
2021/08/07 16:36:27;;;;;;;;;;;16.70;99.90;;;;;;5088422;28;20289;-56
2021/08/07 16:39:17;;;;;;;;;;;16.60;99.90;;;;;;5089294;28;19924;-56
2021/08/07 16:42:08;;;;;;;;;;;16.60;99.90;;;;;;5075631;28;20433;-56
2021/08/07 16:48:10;;;;;;;;;;;16.40;99.90;;;;;;5076709;28;20280;-56
2021/08/07 16:50:59;;;;;;;;;;;16.30;99.90;;;;;;5079819;28;19974;-56
2021/08/07 16:53:48;;;;;;;;;;;16.40;99.90;;;;;;5078510;28;19942;-56
2021/08/07 16:56:37;;;;;;;;;;;16.30;99.90;;;;;;5083046;28;19946;-56
2021/08/07 16:59:29;;;;;;;;;;;16.20;99.90;;;;;;5074940;28;19996;-56